Loretto, Minnesota
Current Conditions -  °F | °C
As of 3:35 AM on Saturday 20 Dec 2014 (Local Time) from KCFE Reporting Station
Haze Haze  
Wind Chill: 23°   Ceiling: 700
Heat Index: 30°   Visibility: 4mi
Dew Point: 28°   Wind: 7mph
Humidity: 92%   Direction: 140°SE
Pressure: 30.14"   Gusts: NA
Location:  45.06°N, 93.64°W
Report Text: KCFE 200935Z AUTO 14006KT 4SM BR OVC007 M01/M02 A3014 RMK AO2 T10111023
Loading
Personal Weather Stations






























Interactive Weather Map New forecast layout! Learn more

10-Day Weather Forecast

Advertisements
Track Severe Weather on mobile